sensor_id;sensor_type;location;lat;lon;timestamp;pressure;altitude;pressure_sealevel;temperature;humidity
50484;BME280;36409;52.168;20.878;2022-08-20T00:02:14;100201.59;;;23.10;57.93
50484;BME280;36409;52.168;20.878;2022-08-20T00:04:43;100215.12;;;23.07;57.93
50484;BME280;36409;52.168;20.878;2022-08-20T00:07:13;100217.99;;;23.04;57.98
50484;BME280;36409;52.168;20.878;2022-08-20T00:09:42;100213.83;;;22.99;58.21
50484;BME280;36409;52.168;20.878;2022-08-20T00:12:14;100225.66;;;22.95;57.87
50484;BME280;36409;52.168;20.878;2022-08-20T00:14:43;100216.37;;;22.88;58.16
50484;BME280;36409;52.168;20.878;2022-08-20T00:17:12;100214.34;;;22.79;57.98
50484;BME280;36409;52.168;20.878;2022-08-20T00:19:41;100218.28;;;22.73;58.66
50484;BME280;36409;52.168;20.878;2022-08-20T00:22:09;100209.77;;;22.68;58.63
50484;BME280;36409;52.168;20.878;2022-08-20T00:24:38;100212.72;;;22.63;59.12
50484;BME280;36409;52.168;20.878;2022-08-20T00:27:07;100214.66;;;22.61;58.86
50484;BME280;36409;52.168;20.878;2022-08-20T00:29:36;100218.46;;;22.57;59.29
50484;BME280;36409;52.168;20.878;2022-08-20T00:32:05;100208.14;;;22.52;59.20
50484;BME280;36409;52.168;20.878;2022-08-20T00:34:33;100210.91;;;22.51;59.16
50484;BME280;36409;52.168;20.878;2022-08-20T00:37:02;100214.52;;;22.50;59.46
50484;BME280;36409;52.168;20.878;2022-08-20T00:39:30;100211.94;;;22.48;59.67
50484;BME280;36409;52.168;20.878;2022-08-20T00:41:59;100203.13;;;22.48;59.54
50484;BME280;36409;52.168;20.878;2022-08-20T00:44:28;100204.08;;;22.47;59.69
50484;BME280;36409;52.168;20.878;2022-08-20T00:46:57;100183.77;;;22.46;59.86
50484;BME280;36409;52.168;20.878;2022-08-20T00:49:27;100179.28;;;22.46;60.11
50484;BME280;36409;52.168;20.878;2022-08-20T00:51:59;100177.38;;;22.48;60.06
50484;BME280;36409;52.168;20.878;2022-08-20T00:54:34;100175.59;;;22.49;60.08
50484;BME280;36409;52.168;20.878;2022-08-20T00:57:08;100182.61;;;22.50;60.28
50484;BME280;36409;52.168;20.878;2022-08-20T00:59:40;100181.66;;;22.51;59.53
50484;BME280;36409;52.168;20.878;2022-08-20T01:02:12;100177.30;;;22.50;60.00
50484;BME280;36409;52.168;20.878;2022-08-20T01:04:42;100169.52;;;22.47;59.55
50484;BME280;36409;52.168;20.878;2022-08-20T01:07:13;100165.34;;;22.43;60.09
50484;BME280;36409;52.168;20.878;2022-08-20T01:09:42;100164.59;;;22.41;59.66
50484;BME280;36409;52.168;20.878;2022-08-20T01:12:28;100164.67;;;22.39;59.71
50484;BME280;36409;52.168;20.878;2022-08-20T01:14:59;100154.83;;;22.41;59.92
50484;BME280;36409;52.168;20.878;2022-08-20T01:17:33;100145.03;;;22.42;59.88
50484;BME280;36409;52.168;20.878;2022-08-20T01:20:07;100146.73;;;22.43;60.28
50484;BME280;36409;52.168;20.878;2022-08-20T01:22:42;100145.78;;;22.44;60.30
50484;BME280;36409;52.168;20.878;2022-08-20T01:25:37;100136.97;;;22.43;60.23
50484;BME280;36409;52.168;20.878;2022-08-20T01:28:06;100136.11;;;22.43;60.40
50484;BME280;36409;52.168;20.878;2022-08-20T01:30:36;100134.48;;;22.40;59.51
50484;BME280;36409;52.168;20.878;2022-08-20T01:33:05;100132.14;;;22.35;60.17
50484;BME280;36409;52.168;20.878;2022-08-20T01:35:36;100128.84;;;22.32;60.19
50484;BME280;36409;52.168;20.878;2022-08-20T01:38:07;100126.27;;;22.30;60.27
50484;BME280;36409;52.168;20.878;2022-08-20T01:40:56;100122.89;;;22.28;60.19
50484;BME280;36409;52.168;20.878;2022-08-20T01:43:27;100112.45;;;22.25;60.28
50484;BME280;36409;52.168;20.878;2022-08-20T01:48:31;100110.11;;;22.20;60.71
50484;BME280;36409;52.168;20.878;2022-08-20T01:51:05;100102.22;;;22.19;60.73
50484;BME280;36409;52.168;20.878;2022-08-20T01:53:38;100101.49;;;22.17;60.32
50484;BME280;36409;52.168;20.878;2022-08-20T01:56:10;100111.37;;;22.15;60.46
50484;BME280;36409;52.168;20.878;2022-08-20T01:58:44;100102.75;;;22.11;60.23
50484;BME280;36409;52.168;20.878;2022-08-20T02:01:22;100099.34;;;22.09;60.23
50484;BME280;36409;52.168;20.878;2022-08-20T02:03:51;100095.29;;;22.03;60.32
50484;BME280;36409;52.168;20.878;2022-08-20T02:06:22;100091.99;;;22.00;60.51
50484;BME280;36409;52.168;20.878;2022-08-20T02:08:55;100097.39;;;21.98;60.78
50484;BME280;36409;52.168;20.878;2022-08-20T02:11:26;100093.14;;;21.96;60.45
50484;BME280;36409;52.168;20.878;2022-08-20T02:13:55;100094.28;;;21.91;60.78
50484;BME280;36409;52.168;20.878;2022-08-20T02:16:28;100098.00;;;21.89;60.80
50484;BME280;36409;52.168;20.878;2022-08-20T02:19:00;100104.27;;;21.88;60.94
50484;BME280;36409;52.168;20.878;2022-08-20T02:21:31;100127.33;;;21.87;61.04
50484;BME280;36409;52.168;20.878;2022-08-20T02:24:00;100130.07;;;21.86;61.53
50484;BME280;36409;52.168;20.878;2022-08-20T02:26:30;100113.30;;;21.85;61.44
50484;BME280;36409;52.168;20.878;2022-08-20T02:28:58;100128.47;;;21.83;61.16
50484;BME280;36409;52.168;20.878;2022-08-20T02:31:28;100141.87;;;21.82;61.07
50484;BME280;36409;52.168;20.878;2022-08-20T02:34:01;100139.29;;;21.80;61.12
50484;BME280;36409;52.168;20.878;2022-08-20T02:36:50;100132.58;;;21.74;61.37
50484;BME280;36409;52.168;20.878;2022-08-20T02:39:37;100126.72;;;21.69;61.70
50484;BME280;36409;52.168;20.878;2022-08-20T02:46:09;100126.83;;;21.53;61.78
50484;BME280;36409;52.168;20.878;2022-08-20T02:48:45;100121.59;;;21.52;61.67
50484;BME280;36409;52.168;20.878;2022-08-20T02:51:17;100115.56;;;21.50;62.10
50484;BME280;36409;52.168;20.878;2022-08-20T02:54:00;100102.47;;;21.47;61.71
50484;BME280;36409;52.168;20.878;2022-08-20T02:56:34;100100.77;;;21.45;62.32
50484;BME280;36409;52.168;20.878;2022-08-20T02:59:03;100103.53;;;21.44;62.24
50484;BME280;36409;52.168;20.878;2022-08-20T03:01:33;100098.95;;;21.46;62.04
50484;BME280;36409;52.168;20.878;2022-08-20T03:04:08;100106.08;;;21.45;62.47
50484;BME280;36409;52.168;20.878;2022-08-20T03:06:40;100106.19;;;21.44;62.21
50484;BME280;36409;52.168;20.878;2022-08-20T03:09:09;100106.27;;;21.42;62.54
50484;BME280;36409;52.168;20.878;2022-08-20T03:11:38;100108.16;;;21.40;62.38
50484;BME280;36409;52.168;20.878;2022-08-20T03:14:14;100104.56;;;21.41;62.63
50484;BME280;36409;52.168;20.878;2022-08-20T03:16:52;100094.05;;;21.40;62.50
50484;BME280;36409;52.168;20.878;2022-08-20T03:19:27;100086.20;;;21.38;62.72
50484;BME280;36409;52.168;20.878;2022-08-20T03:22:03;100089.80;;;21.37;62.69
50484;BME280;36409;52.168;20.878;2022-08-20T03:24:50;100086.27;;;21.37;62.99
50484;BME280;36409;52.168;20.878;2022-08-20T03:27:23;100079.18;;;21.37;62.74
50484;BME280;36409;52.168;20.878;2022-08-20T03:30:02;100081.84;;;21.37;63.09
50484;BME280;36409;52.168;20.878;2022-08-20T03:32:31;100077.36;;;21.38;62.60
50484;BME280;36409;52.168;20.878;2022-08-20T03:35:13;100079.91;;;21.39;63.39
50484;BME280;36409;52.168;20.878;2022-08-20T03:37:45;100079.72;;;21.42;63.23
50484;BME280;36409;52.168;20.878;2022-08-20T03:40:25;100085.90;;;21.43;63.23
50484;BME280;36409;52.168;20.878;2022-08-20T03:42:57;100079.53;;;21.45;62.94
50484;BME280;36409;52.168;20.878;2022-08-20T03:45:31;100075.93;;;21.47;63.33
50484;BME280;36409;52.168;20.878;2022-08-20T03:48:11;100079.42;;;21.47;63.60
50484;BME280;36409;52.168;20.878;2022-08-20T03:50:50;100086.44;;;21.48;63.18
50484;BME280;36409;52.168;20.878;2022-08-20T03:53:43;100090.80;;;21.49;63.36
50484;BME280;36409;52.168;20.878;2022-08-20T03:56:18;100095.16;;;21.50;62.95
50484;BME280;36409;52.168;20.878;2022-08-20T03:59:16;100104.72;;;21.53;63.59
50484;BME280;36409;52.168;20.878;2022-08-20T04:02:00;100110.03;;;21.53;63.44
50484;BME280;36409;52.168;20.878;2022-08-20T04:04:37;100116.29;;;21.52;63.40
50484;BME280;36409;52.168;20.878;2022-08-20T04:07:32;100124.06;;;21.55;63.65
50484;BME280;36409;52.168;20.878;2022-08-20T04:10:26;100118.56;;;21.58;63.57
50484;BME280;36409;52.168;20.878;2022-08-20T04:13:09;100107.79;;;21.61;63.23
50484;BME280;36409;52.168;20.878;2022-08-20T04:15:38;100094.41;;;21.63;63.85
50484;BME280;36409;52.168;20.878;2022-08-20T04:18:09;100101.23;;;21.67;63.31
50484;BME280;36409;52.168;20.878;2022-08-20T04:20:52;100104.53;;;21.70;63.44
50484;BME280;36409;52.168;20.878;2022-08-20T04:24:05;100115.69;;;21.75;63.84
50484;BME280;36409;52.168;20.878;2022-08-20T04:26:49;100114.73;;;21.77;63.63
50484;BME280;36409;52.168;20.878;2022-08-20T04:29:48;100117.09;;;21.81;63.79
50484;BME280;36409;52.168;20.878;2022-08-20T04:32:33;100114.13;;;21.86;63.65
50484;BME280;36409;52.168;20.878;2022-08-20T04:35:20;100113.10;;;21.88;63.53
50484;BME280;36409;52.168;20.878;2022-08-20T04:38:17;100111.92;;;21.93;63.92
50484;BME280;36409;52.168;20.878;2022-08-20T04:45:35;100109.19;;;21.94;63.51
50484;BME280;36409;52.168;20.878;2022-08-20T04:48:15;100110.67;;;21.98;63.70
50484;BME280;36409;52.168;20.878;2022-08-20T04:50:45;100112.18;;;22.02;63.38
50484;BME280;36409;52.168;20.878;2022-08-20T04:53:21;100107.70;;;22.03;63.57
50484;BME280;36409;52.168;20.878;2022-08-20T04:55:59;100112.18;;;22.02;64.09
50484;BME280;36409;52.168;20.878;2022-08-20T04:58:38;100118.33;;;22.03;63.65
50484;BME280;36409;52.168;20.878;2022-08-20T05:01:15;100117.30;;;22.05;63.60
50484;BME280;36409;52.168;20.878;2022-08-20T05:03:57;100114.41;;;22.09;63.63
50484;BME280;36409;52.168;20.878;2022-08-20T05:06:51;100120.48;;;22.11;64.09
50484;BME280;36409;52.168;20.878;2022-08-20T05:09:24;100117.63;;;22.14;63.75
50484;BME280;36409;52.168;20.878;2022-08-20T05:11:53;100119.22;;;22.16;63.74
50484;BME280;36409;52.168;20.878;2022-08-20T05:17:40;100126.25;;;22.17;63.64
50484;BME280;36409;52.168;20.878;2022-08-20T05:20:14;100127.12;;;22.18;63.94
50484;BME280;36409;52.168;20.878;2022-08-20T05:23:02;100127.12;;;22.18;63.81
50484;BME280;36409;52.168;20.878;2022-08-20T05:25:44;100133.91;;;22.22;63.66
50484;BME280;36409;52.168;20.878;2022-08-20T05:28:25;100123.84;;;22.27;63.90
50484;BME280;36409;52.168;20.878;2022-08-20T05:30:54;100125.23;;;22.33;63.92
50484;BME280;36409;52.168;20.878;2022-08-20T05:33:24;100118.65;;;22.39;63.75
50484;BME280;36409;52.168;20.878;2022-08-20T05:35:54;100123.56;;;22.45;64.28
50484;BME280;36409;52.168;20.878;2022-08-20T05:38:27;100117.93;;;22.49;64.21
50484;BME280;36409;52.168;20.878;2022-08-20T05:40:56;100113.16;;;22.55;64.02
50484;BME280;36409;52.168;20.878;2022-08-20T05:43:25;100111.89;;;22.60;64.16
50484;BME280;36409;52.168;20.878;2022-08-20T05:45:56;100113.36;;;22.64;63.80
50484;BME280;36409;52.168;20.878;2022-08-20T05:48:25;100118.16;;;22.72;63.73
50484;BME280;36409;52.168;20.878;2022-08-20T05:50:55;100109.77;;;22.78;64.05
50484;BME280;36409;52.168;20.878;2022-08-20T05:53:25;100109.33;;;22.85;63.84
50484;BME280;36409;52.168;20.878;2022-08-20T05:55:54;100108.91;;;22.91;63.84
50484;BME280;36409;52.168;20.878;2022-08-20T05:58:25;100108.59;;;22.95;63.55
50484;BME280;36409;52.168;20.878;2022-08-20T06:00:54;100114.21;;;23.04;63.86
50484;BME280;36409;52.168;20.878;2022-08-20T06:03:23;100109.94;;;23.14;63.57
50484;BME280;36409;52.168;20.878;2022-08-20T06:06:10;100104.73;;;23.25;63.44
50484;BME280;36409;52.168;20.878;2022-08-20T06:09:00;100115.45;;;23.37;63.18
50484;BME280;36409;52.168;20.878;2022-08-20T06:11:30;100119.48;;;23.42;63.50
50484;BME280;36409;52.168;20.878;2022-08-20T06:14:04;100114.78;;;23.46;63.11
50484;BME280;36409;52.168;20.878;2022-08-20T06:16:33;100111.78;;;23.51;63.20
50484;BME280;36409;52.168;20.878;2022-08-20T06:19:05;100124.67;;;23.57;63.22
50484;BME280;36409;52.168;20.878;2022-08-20T06:21:39;100113.77;;;23.60;62.82
50484;BME280;36409;52.168;20.878;2022-08-20T06:24:08;100124.09;;;23.65;62.56
50484;BME280;36409;52.168;20.878;2022-08-20T06:26:37;100121.95;;;23.70;62.88
50484;BME280;36409;52.168;20.878;2022-08-20T06:29:06;100114.23;;;23.78;62.85
50484;BME280;36409;52.168;20.878;2022-08-20T06:31:35;100125.56;;;23.93;62.40
50484;BME280;36409;52.168;20.878;2022-08-20T06:34:07;100128.83;;;24.10;62.56
50484;BME280;36409;52.168;20.878;2022-08-20T06:36:36;100125.98;;;24.24;62.89
50484;BME280;36409;52.168;20.878;2022-08-20T06:39:05;100126.98;;;24.34;62.69
50484;BME280;36409;52.168;20.878;2022-08-20T06:41:33;100124.70;;;24.41;62.50
50484;BME280;36409;52.168;20.878;2022-08-20T06:44:05;100127.50;;;24.51;62.36
50484;BME280;36409;52.168;20.878;2022-08-20T06:46:35;100130.31;;;24.61;62.30
50484;BME280;36409;52.168;20.878;2022-08-20T06:49:04;100136.87;;;24.68;61.96
50484;BME280;36409;52.168;20.878;2022-08-20T06:51:34;100129.22;;;24.63;61.94
50484;BME280;36409;52.168;20.878;2022-08-20T06:54:05;100131.05;;;24.63;61.57
50484;BME280;36409;52.168;20.878;2022-08-20T06:56:33;100133.36;;;24.67;61.90
50484;BME280;36409;52.168;20.878;2022-08-20T06:59:02;100146.70;;;24.67;61.71
50484;BME280;36409;52.168;20.878;2022-08-20T07:01:31;100143.42;;;24.64;61.91
50484;BME280;36409;52.168;20.878;2022-08-20T07:03:59;100148.03;;;24.62;61.80
50484;BME280;36409;52.168;20.878;2022-08-20T07:06:29;100149.59;;;24.64;61.73
50484;BME280;36409;52.168;20.878;2022-08-20T07:08:58;100145.84;;;24.67;61.51
50484;BME280;36409;52.168;20.878;2022-08-20T07:11:27;100144.55;;;24.73;61.23
50484;BME280;36409;52.168;20.878;2022-08-20T07:13:57;100138.98;;;24.76;61.29
50484;BME280;36409;52.168;20.878;2022-08-20T07:16:26;100138.84;;;24.77;61.17
50484;BME280;36409;52.168;20.878;2022-08-20T07:18:55;100141.05;;;24.83;61.43
50484;BME280;36409;52.168;20.878;2022-08-20T07:21:25;100143.23;;;24.90;60.73
50484;BME280;36409;52.168;20.878;2022-08-20T07:23:53;100138.53;;;24.93;61.06
50484;BME280;36409;52.168;20.878;2022-08-20T07:26:22;100137.06;;;25.01;61.07
50484;BME280;36409;52.168;20.878;2022-08-20T07:28:51;100143.38;;;25.11;60.63
50484;BME280;36409;52.168;20.878;2022-08-20T07:31:20;100126.85;;;25.17;60.55
50484;BME280;36409;52.168;20.878;2022-08-20T07:34:09;100135.23;;;25.24;60.51
50484;BME280;36409;52.168;20.878;2022-08-20T07:36:39;100143.00;;;25.27;60.28
50484;BME280;36409;52.168;20.878;2022-08-20T07:39:08;100146.87;;;25.34;60.57
50484;BME280;36409;52.168;20.878;2022-08-20T07:41:36;100144.70;;;25.51;60.66
50484;BME280;36409;52.168;20.878;2022-08-20T07:44:05;100134.22;;;25.70;60.08
50484;BME280;36409;52.168;20.878;2022-08-20T07:46:34;100140.60;;;25.90;60.49
50484;BME280;36409;52.168;20.878;2022-08-20T07:49:03;100138.23;;;26.09;60.25
50484;BME280;36409;52.168;20.878;2022-08-20T07:51:35;100146.09;;;26.21;59.72
50484;BME280;36409;52.168;20.878;2022-08-20T07:54:04;100134.56;;;26.21;59.40
50484;BME280;36409;52.168;20.878;2022-08-20T07:56:33;100144.87;;;26.26;59.60
50484;BME280;36409;52.168;20.878;2022-08-20T07:59:04;100135.73;;;26.28;59.46
50484;BME280;36409;52.168;20.878;2022-08-20T08:01:33;100122.88;;;26.43;59.01
50484;BME280;36409;52.168;20.878;2022-08-20T08:04:02;100125.73;;;26.51;58.99
50484;BME280;36409;52.168;20.878;2022-08-20T08:06:31;100122.41;;;26.59;58.64
50484;BME280;36409;52.168;20.878;2022-08-20T08:09:04;100113.59;;;26.68;59.09
50484;BME280;36409;52.168;20.878;2022-08-20T08:11:36;100108.91;;;26.82;58.75
50484;BME280;36409;52.168;20.878;2022-08-20T08:14:07;100102.94;;;27.00;58.60
50484;BME280;36409;52.168;20.878;2022-08-20T08:16:37;100107.78;;;27.16;58.50
50484;BME280;36409;52.168;20.878;2022-08-20T08:19:08;100113.88;;;27.27;57.98
50484;BME280;36409;52.168;20.878;2022-08-20T08:21:38;100108.97;;;27.33;57.74
50484;BME280;36409;52.168;20.878;2022-08-20T08:24:08;100106.40;;;27.31;57.32
50484;BME280;36409;52.168;20.878;2022-08-20T08:26:38;100108.52;;;27.27;57.25
50484;BME280;36409;52.168;20.878;2022-08-20T08:29:06;100101.76;;;27.33;56.96
50484;BME280;36409;52.168;20.878;2022-08-20T08:31:35;100103.11;;;27.49;57.19
50484;BME280;36409;52.168;20.878;2022-08-20T08:34:04;100093.12;;;27.70;57.11
50484;BME280;36409;52.168;20.878;2022-08-20T08:36:32;100094.13;;;27.79;56.65
50484;BME280;36409;52.168;20.878;2022-08-20T08:39:01;100095.39;;;27.85;56.47
50484;BME280;36409;52.168;20.878;2022-08-20T08:41:33;100100.60;;;27.86;56.29
50484;BME280;36409;52.168;20.878;2022-08-20T08:44:04;100101.72;;;27.94;56.38
50484;BME280;36409;52.168;20.878;2022-08-20T08:46:39;100102.05;;;28.10;56.34
50484;BME280;36409;52.168;20.878;2022-08-20T08:49:13;100106.34;;;28.50;56.00
50484;BME280;36409;52.168;20.878;2022-08-20T08:51:45;100104.67;;;28.97;55.55
50484;BME280;36409;52.168;20.878;2022-08-20T08:54:17;100117.52;;;29.31;55.29
50484;BME280;36409;52.168;20.878;2022-08-20T08:56:49;100113.47;;;29.73;54.91
50484;BME280;36409;52.168;20.878;2022-08-20T08:59:19;100119.46;;;30.21;54.52
50484;BME280;36409;52.168;20.878;2022-08-20T09:01:52;100114.83;;;30.31;53.80
50484;BME280;36409;52.168;20.878;2022-08-20T09:04:28;100114.56;;;30.61;53.41
50484;BME280;36409;52.168;20.878;2022-08-20T09:06:58;100111.91;;;30.95;53.08
50484;BME280;36409;52.168;20.878;2022-08-20T09:09:32;100112.38;;;31.25;52.46
50484;BME280;36409;52.168;20.878;2022-08-20T09:12:06;100118.69;;;31.59;52.09
50484;BME280;36409;52.168;20.878;2022-08-20T09:14:35;100114.91;;;31.95;51.60
50484;BME280;36409;52.168;20.878;2022-08-20T09:17:05;100114.92;;;32.19;51.23
50484;BME280;36409;52.168;20.878;2022-08-20T09:19:35;100113.23;;;32.35;50.79
50484;BME280;36409;52.168;20.878;2022-08-20T09:22:08;100113.55;;;32.48;50.52
50484;BME280;36409;52.168;20.878;2022-08-20T09:24:37;100108.83;;;32.50;49.72
50484;BME280;36409;52.168;20.878;2022-08-20T09:27:07;100111.73;;;32.32;49.57
50484;BME280;36409;52.168;20.878;2022-08-20T09:29:36;100102.42;;;32.52;49.72
50484;BME280;36409;52.168;20.878;2022-08-20T09:32:07;100109.45;;;32.86;49.89
50484;BME280;36409;52.168;20.878;2022-08-20T09:34:38;100102.28;;;33.01;48.79
50484;BME280;36409;52.168;20.878;2022-08-20T09:37:07;100106.62;;;33.10;48.62
50484;BME280;36409;52.168;20.878;2022-08-20T09:39:36;100109.44;;;33.34;48.53
50484;BME280;36409;52.168;20.878;2022-08-20T09:42:11;100103.22;;;33.56;48.23
50484;BME280;36409;52.168;20.878;2022-08-20T09:44:41;100104.61;;;33.76;47.87
50484;BME280;36409;52.168;20.878;2022-08-20T09:47:10;100101.65;;;33.85;47.34
50484;BME280;36409;52.168;20.878;2022-08-20T09:49:39;100097.28;;;34.08;47.28
50484;BME280;36409;52.168;20.878;2022-08-20T09:52:10;100105.08;;;34.26;46.86
50484;BME280;36409;52.168;20.878;2022-08-20T09:54:44;100098.80;;;34.25;46.48
50484;BME280;36409;52.168;20.878;2022-08-20T09:57:15;100092.45;;;34.18;45.92
50484;BME280;36409;52.168;20.878;2022-08-20T09:59:44;100099.52;;;34.04;46.22
50484;BME280;36409;52.168;20.878;2022-08-20T10:02:15;100089.63;;;34.11;46.06
50484;BME280;36409;52.168;20.878;2022-08-20T10:04:44;100086.67;;;34.21;45.65
50484;BME280;36409;52.168;20.878;2022-08-20T10:07:13;100080.92;;;34.39;45.73
50484;BME280;36409;52.168;20.878;2022-08-20T10:09:43;100078.97;;;34.48;45.60
50484;BME280;36409;52.168;20.878;2022-08-20T10:12:12;100075.91;;;34.51;45.33
50484;BME280;36409;52.168;20.878;2022-08-20T10:14:41;100081.45;;;34.34;45.02
50484;BME280;36409;52.168;20.878;2022-08-20T10:17:10;100076.83;;;34.43;44.91
50484;BME280;36409;52.168;20.878;2022-08-20T10:19:39;100072.19;;;34.29;44.73
50484;BME280;36409;52.168;20.878;2022-08-20T10:22:07;100062.87;;;34.16;44.48
50484;BME280;36409;52.168;20.878;2022-08-20T10:24:36;100070.59;;;34.19;45.02
50484;BME280;36409;52.168;20.878;2022-08-20T10:27:05;100061.00;;;34.32;44.65
50484;BME280;36409;52.168;20.878;2022-08-20T10:29:34;100068.75;;;34.20;44.32
50484;BME280;36409;52.168;20.878;2022-08-20T10:32:09;100064.37;;;34.34;44.57
50484;BME280;36409;52.168;20.878;2022-08-20T10:34:40;100065.62;;;34.61;44.29
50484;BME280;36409;52.168;20.878;2022-08-20T10:37:11;100070.87;;;34.78;44.43
50484;BME280;36409;52.168;20.878;2022-08-20T10:39:41;100066.56;;;34.99;44.24
50484;BME280;36409;52.168;20.878;2022-08-20T10:42:10;100073.47;;;35.01;43.82
50484;BME280;36409;52.168;20.878;2022-08-20T10:44:39;100074.13;;;35.03;43.62
50484;BME280;36409;52.168;20.878;2022-08-20T10:47:20;100077.66;;;35.04;43.07
50484;BME280;36409;52.168;20.878;2022-08-20T10:49:52;100083.00;;;34.97;43.19
50484;BME280;36409;52.168;20.878;2022-08-20T10:52:22;100082.73;;;34.77;43.18
50484;BME280;36409;52.168;20.878;2022-08-20T10:54:51;100075.27;;;34.79;43.17
50484;BME280;36409;52.168;20.878;2022-08-20T10:57:22;100089.27;;;34.83;43.04
50484;BME280;36409;52.168;20.878;2022-08-20T10:59:54;100081.88;;;34.76;42.93
50484;BME280;36409;52.168;20.878;2022-08-20T11:02:23;100071.59;;;34.72;42.82
50484;BME280;36409;52.168;20.878;2022-08-20T11:04:52;100068.98;;;34.78;42.77
50484;BME280;36409;52.168;20.878;2022-08-20T11:07:25;100074.69;;;34.84;42.90
50484;BME280;36409;52.168;20.878;2022-08-20T11:10:15;100066.16;;;35.02;42.68
50484;BME280;36409;52.168;20.878;2022-08-20T11:12:44;100063.86;;;34.99;42.20
50484;BME280;36409;52.168;20.878;2022-08-20T11:15:14;100059.34;;;34.91;42.03
50484;BME280;36409;52.168;20.878;2022-08-20T11:17:43;100057.12;;;34.79;41.70
50484;BME280;36409;52.168;20.878;2022-08-20T11:20:15;100050.47;;;34.82;41.89
50484;BME280;36409;52.168;20.878;2022-08-20T11:22:44;100056.55;;;34.99;41.65
50484;BME280;36409;52.168;20.878;2022-08-20T11:25:12;100049.61;;;35.12;41.33
50484;BME280;36409;52.168;20.878;2022-08-20T11:27:44;100058.11;;;35.23;40.94
50484;BME280;36409;52.168;20.878;2022-08-20T11:30:15;100054.69;;;35.36;41.02
50484;BME280;36409;52.168;20.878;2022-08-20T11:32:45;100065.51;;;35.51;40.70
50484;BME280;36409;52.168;20.878;2022-08-20T11:35:15;100053.63;;;35.52;40.37
50484;BME280;36409;52.168;20.878;2022-08-20T11:38:05;100048.92;;;35.61;40.37
50484;BME280;36409;52.168;20.878;2022-08-20T11:40:35;100054.45;;;35.53;40.12
50484;BME280;36409;52.168;20.878;2022-08-20T11:43:04;100057.64;;;35.41;40.19
50484;BME280;36409;52.168;20.878;2022-08-20T11:45:50;100046.17;;;35.39;40.04
50484;BME280;36409;52.168;20.878;2022-08-20T11:48:20;100046.73;;;35.50;40.14
50484;BME280;36409;52.168;20.878;2022-08-20T11:50:50;100053.05;;;35.57;39.90
50484;BME280;36409;52.168;20.878;2022-08-20T11:53:19;100046.80;;;35.56;39.72
50484;BME280;36409;52.168;20.878;2022-08-20T11:55:49;100049.61;;;35.48;39.55
50484;BME280;36409;52.168;20.878;2022-08-20T11:58:18;100049.88;;;35.53;39.41
50484;BME280;36409;52.168;20.878;2022-08-20T12:00:47;100046.97;;;35.55;39.54
50484;BME280;36409;52.168;20.878;2022-08-20T12:03:16;100041.23;;;35.65;39.58
50484;BME280;36409;52.168;20.878;2022-08-20T12:05:45;100038.81;;;35.77;39.35
50484;BME280;36409;52.168;20.878;2022-08-20T12:08:15;100043.27;;;35.84;39.35
50484;BME280;36409;52.168;20.878;2022-08-20T12:10:56;100048.05;;;35.82;39.09
50484;BME280;36409;52.168;20.878;2022-08-20T12:13:26;100052.80;;;35.74;38.64
50484;BME280;36409;52.168;20.878;2022-08-20T12:16:15;100045.87;;;35.49;38.42
50484;BME280;36409;52.168;20.878;2022-08-20T12:18:44;100039.95;;;35.24;38.67
50484;BME280;36409;52.168;20.878;2022-08-20T12:21:14;100041.68;;;35.10;38.63
50484;BME280;36409;52.168;20.878;2022-08-20T12:23:42;100036.92;;;34.97;38.72
50484;BME280;36409;52.168;20.878;2022-08-20T12:26:11;100037.95;;;34.96;38.68
50484;BME280;36409;52.168;20.878;2022-08-20T12:28:40;100033.02;;;35.00;38.84
50484;BME280;36409;52.168;20.878;2022-08-20T12:31:08;100037.41;;;35.01;38.66
50484;BME280;36409;52.168;20.878;2022-08-20T12:33:37;100027.97;;;34.97;38.32
50484;BME280;36409;52.168;20.878;2022-08-20T12:36:06;100024.61;;;34.79;38.22
50484;BME280;36409;52.168;20.878;2022-08-20T12:38:36;100030.68;;;34.82;38.50
50484;BME280;36409;52.168;20.878;2022-08-20T12:41:06;100034.62;;;34.94;38.43
50484;BME280;36409;52.168;20.878;2022-08-20T12:43:36;100028.88;;;35.04;38.37
50484;BME280;36409;52.168;20.878;2022-08-20T12:46:04;100034.00;;;35.14;38.31
50484;BME280;36409;52.168;20.878;2022-08-20T12:48:33;100029.31;;;35.22;37.98
50484;BME280;36409;52.168;20.878;2022-08-20T12:51:02;100022.12;;;35.15;37.89
50484;BME280;36409;52.168;20.878;2022-08-20T12:53:31;100017.70;;;34.92;37.71
50484;BME280;36409;52.168;20.878;2022-08-20T12:56:04;100013.97;;;34.78;38.01
50484;BME280;36409;52.168;20.878;2022-08-20T12:58:33;100009.66;;;34.84;37.93
50484;BME280;36409;52.168;20.878;2022-08-20T13:01:02;100012.00;;;34.72;37.93
50484;BME280;36409;52.168;20.878;2022-08-20T13:03:31;100010.70;;;34.53;38.09
50484;BME280;36409;52.168;20.878;2022-08-20T13:06:04;100019.59;;;34.46;38.08
50484;BME280;36409;52.168;20.878;2022-08-20T13:08:33;100014.52;;;34.28;38.07
50484;BME280;36409;52.168;20.878;2022-08-20T13:11:02;100010.31;;;34.11;38.05
50484;BME280;36409;52.168;20.878;2022-08-20T13:13:31;100005.06;;;34.09;38.14
50484;BME280;36409;52.168;20.878;2022-08-20T13:15:59;99995.45;;;34.07;38.22
50484;BME280;36409;52.168;20.878;2022-08-20T13:18:28;100001.53;;;34.09;38.47
50484;BME280;36409;52.168;20.878;2022-08-20T13:20:56;99992.85;;;34.13;38.37
50484;BME280;36409;52.168;20.878;2022-08-20T13:23:25;99988.46;;;34.12;38.21